Time;durP1;ratioP1;P1;durP2;ratioP2;P2;SDS_P1;SDS_P2;PMS_P1;PMS_P2;Temp;Humidity;BMP_temperature;BMP_pressure;BME280_temperature;BME280_humidity;BME280_pressure;Samples;Min_cycle;Max_cycle;Signal;HPM_P1;HPM_P2
2023/01/27 05:22:03;;;;;;;77.30;32.60;;;;;;;4.53;100.00;100885.99;107684;1282;21996;-62
2023/01/27 05:24:29;;;;;;;78.40;32.10;;;;;;;5.10;99.82;100883.82;106781;1294;1002631;-67
2023/01/27 05:26:56;;;;;;;82.10;32.30;;;;;;;5.40;97.69;100881.21;107613;1293;21996;-63
2023/01/27 05:29:22;;;;;;;80.10;33.40;;;;;;;5.63;96.14;100877.59;107703;1294;22005;-62
2023/01/27 05:31:48;;;;;;;72.20;32.60;;;;;;;5.82;94.24;100874.74;107439;1292;357697;-62
2023/01/27 05:34:15;;;;;;;68.00;32.00;;;;;;;5.93;92.93;100871.95;107744;1292;22008;-61
2023/01/27 05:36:41;;;;;;;61.70;28.60;;;;;;;6.05;91.91;100879.10;107893;1292;22462;-67
2023/01/27 05:39:09;;;;;;;60.50;25.60;;;;;;;6.17;91.01;100873.70;107822;1291;22057;-61
2023/01/27 05:41:35;;;;;;;51.30;21.50;;;;;;;6.27;90.23;100866.88;107746;1292;22052;-66
2023/01/27 05:44:01;;;;;;;47.80;20.70;;;;;;;6.35;89.37;100868.20;107768;1292;21998;-63
2023/01/27 05:46:28;;;;;;;53.70;20.90;;;;;;;6.41;88.24;100867.05;107776;1292;22035;-61
2023/01/27 05:48:56;;;;;;;38.40;19.60;;;;;;;6.41;87.79;100863.23;107797;1290;22000;-61
2023/01/27 05:51:23;;;;;;;37.80;17.20;;;;;;;6.43;87.02;100864.11;107819;1290;22032;-61
2023/01/27 05:53:49;;;;;;;43.70;18.10;;;;;;;6.42;86.85;100864.98;107755;1291;21996;-66
2023/01/27 05:56:17;;;;;;;44.20;20.00;;;;;;;6.43;86.90;100861.66;107716;1290;21987;-65
2023/01/27 05:58:44;;;;;;;45.50;19.80;;;;;;;6.43;86.36;100851.91;107759;1290;21995;-61
2023/01/27 06:01:18;;;;;;;44.50;21.30;;;;;;;6.45;86.18;100852.98;107817;1289;22005;-67
2023/01/27 06:03:45;;;;;;;37.30;19.90;;;;;;;6.47;85.86;100854.92;107876;1290;22001;-68
2023/01/27 06:06:12;;;;;;;35.50;19.10;;;;;;;6.47;85.39;100856.49;108012;1290;22567;-68
2023/01/27 06:08:37;;;;;;;36.70;19.00;;;;;;;6.48;85.31;100851.95;107794;1290;21999;-68
2023/01/27 06:11:04;;;;;;;33.70;18.60;;;;;;;6.50;85.08;100844.33;107876;1287;22030;-63
2023/01/27 06:13:30;;;;;;;32.60;19.00;;;;;;;6.51;84.60;100832.66;107804;1283;21997;-63
2023/01/27 06:15:56;;;;;;;34.40;17.90;;;;;;;6.51;84.36;100816.09;107929;1290;21991;-62
2023/01/27 06:18:24;;;;;;;41.50;20.50;;;;;;;6.49;83.98;100808.23;107850;1290;21995;-68
2023/01/27 06:20:49;;;;;;;37.60;20.20;;;;;;;6.51;84.13;100820.64;107822;1290;22173;-63
2023/01/27 06:23:16;;;;;;;40.40;20.30;;;;;;;6.60;83.69;100829.44;108003;1290;21988;-63
2023/01/27 06:25:43;;;;;;;37.20;20.10;;;;;;;6.62;83.24;100830.35;107796;1290;22001;-68
2023/01/27 06:28:09;;;;;;;37.00;20.20;;;;;;;6.59;83.35;100830.84;107894;1290;22000;-68
2023/01/27 06:30:36;;;;;;;37.40;19.50;;;;;;;6.63;83.12;100835.41;107867;1280;21990;-69
2023/01/27 06:33:05;;;;;;;35.70;19.50;;;;;;;6.68;82.87;100836.68;107932;1282;22179;-63
2023/01/27 06:35:34;;;;;;;32.10;18.60;;;;;;;6.72;82.56;100836.36;107755;1290;22002;-68
2023/01/27 06:38:00;;;;;;;29.80;17.30;;;;;;;6.72;82.33;100837.94;107856;1290;21991;-69
2023/01/27 06:40:29;;;;;;;39.90;19.90;;;;;;;6.70;82.22;100836.01;108019;1279;22517;-69
2023/01/27 06:43:01;;;;;;;35.50;18.30;;;;;;;6.70;81.89;100834.08;107872;1290;23090;-69
2023/01/27 06:45:27;;;;;;;36.30;20.10;;;;;;;6.67;80.59;100835.09;107906;1290;21995;-69
2023/01/27 06:47:57;;;;;;;40.80;20.40;;;;;;;6.63;80.71;100836.27;107981;1290;22006;-70
2023/01/27 06:50:23;;;;;;;34.10;17.80;;;;;;;6.64;81.22;100835.41;107942;1290;22000;-70
2023/01/27 06:52:50;;;;;;;30.70;17.80;;;;;;;6.66;81.50;100835.42;107880;1287;21988;-71
2023/01/27 06:55:18;;;;;;;33.00;17.80;;;;;;;6.71;82.33;100832.34;107990;1290;23782;-70
2023/01/27 06:57:47;;;;;;;36.90;19.80;;;;;;;6.76;82.40;100828.39;107873;1290;22021;-70
2023/01/27 07:00:15;;;;;;;36.00;19.30;;;;;;;6.73;82.56;100823.48;107882;1290;21989;-63
2023/01/27 07:02:43;;;;;;;38.30;18.70;;;;;;;6.77;82.55;100818.65;108024;1290;21995;-70
2023/01/27 07:05:11;;;;;;;35.70;19.20;;;;;;;6.86;81.84;100817.67;107854;1290;24194;-70
2023/01/27 07:07:37;;;;;;;34.40;19.30;;;;;;;6.89;81.21;100813.69;107973;1289;22001;-63
2023/01/27 07:10:04;;;;;;;38.90;20.60;;;;;;;6.83;78.94;100805.79;107803;1290;21991;-62
2023/01/27 07:12:31;;;;;;;40.70;20.30;;;;;;;6.72;77.82;100802.54;107840;1290;21997;-69
2023/01/27 07:15:01;;;;;;;34.40;19.50;;;;;;;6.72;79.68;100798.17;107768;1291;21999;-68
2023/01/27 07:17:27;;;;;;;41.90;19.80;;;;;;;6.80;81.00;100794.25;107770;1290;23685;-64
2023/01/27 07:19:54;;;;;;;35.90;18.10;;;;;;;6.90;81.85;100798.53;107816;1278;21993;-69
2023/01/27 07:22:22;;;;;;;38.00;19.80;;;;;;;6.99;82.13;100797.22;107734;1291;22046;-64
2023/01/27 07:24:48;;;;;;;43.50;20.20;;;;;;;7.07;82.23;100795.02;107881;1289;21996;-69
2023/01/27 07:27:14;;;;;;;35.00;19.80;;;;;;;7.15;82.59;100795.61;107772;1287;21990;-68
2023/01/27 07:29:39;;;;;;;34.50;20.40;;;;;;;7.23;82.57;100801.96;107881;1289;21992;-64
2023/01/27 07:32:06;;;;;;;30.90;18.70;;;;;;;7.31;82.71;100804.81;107939;1289;21995;-68
2023/01/27 07:34:33;;;;;;;32.90;18.50;;;;;;;7.39;82.61;100805.40;107774;1289;22031;-64
2023/01/27 07:36:59;;;;;;;39.90;19.10;;;;;;;7.46;82.85;100803.73;107010;1289;1002082;-69
2023/01/27 07:39:28;;;;;;;36.10;20.90;;;;;;;7.53;82.97;100799.74;107787;1289;22201;-69
2023/01/27 07:41:54;;;;;;;38.60;20.20;;;;;;;7.61;83.36;100794.21;107772;1289;21993;-68
2023/01/27 07:44:20;;;;;;;33.70;19.00;;;;;;;7.63;82.16;100792.65;107756;1289;22001;-69
2023/01/27 07:46:46;;;;;;;35.90;19.70;;;;;;;7.64;81.63;100795.27;107753;1289;22522;-69
2023/01/27 07:49:12;;;;;;;33.80;19.00;;;;;;;7.65;81.49;100791.10;108058;1289;22030;-64
2023/01/27 07:51:39;;;;;;;33.80;18.00;;;;;;;7.67;81.94;100794.77;107894;1287;22007;-64
2023/01/27 07:54:05;;;;;;;29.40;17.50;;;;;;;7.69;81.62;100795.48;107738;1290;22001;-64
2023/01/27 07:56:31;;;;;;;28.10;17.00;;;;;;;7.71;81.73;100800.40;107630;1290;22462;-64
2023/01/27 07:58:57;;;;;;;30.20;18.00;;;;;;;7.73;81.37;100797.26;107773;1290;21996;-64
2023/01/27 08:01:23;;;;;;;30.30;16.90;;;;;;;7.75;81.07;100800.40;107598;1291;22017;-64
2023/01/27 14:08:40;;;;;;;39.60;20.20;;;;;;;1.83;100.00;100551.31;107465;1290;548321;-66
2023/01/27 14:11:06;;;;;;;53.20;23.60;;;;;;;5.04;100.00;100528.15;107641;1291;22042;-68
2023/01/27 14:13:40;;;;;;;55.70;24.00;;;;;;;5.63;100.00;100523.82;107421;1296;22014;-61
2023/01/27 14:16:08;;;;;;;50.10;22.00;;;;;;;5.89;98.44;100524.77;107500;1283;21999;-68
2023/01/27 14:18:41;;;;;;;36.70;18.80;;;;;;;6.05;96.31;100524.77;107414;1295;22784;-68
2023/01/27 14:21:19;;;;;;;43.60;20.10;;;;;;;6.18;94.86;100537.59;107261;1283;202592;-68
2023/01/27 14:24:00;;;;;;;36.80;19.00;;;;;;;6.30;93.54;100533.15;107710;1292;22024;-62
2023/01/27 14:26:51;;;;;;;31.20;17.30;;;;;;;6.37;92.18;100520.48;107670;1293;22058;-69
2023/01/27 14:29:32;;;;;;;27.80;15.10;;;;;;;6.41;90.88;100513.02;107725;1292;22029;-69
2023/01/27 14:32:20;;;;;;;30.20;16.60;;;;;;;6.44;89.57;100507.98;107888;1292;22018;-69
2023/01/27 14:35:04;;;;;;;28.20;15.80;;;;;;;6.45;88.59;100505.71;107821;1292;22007;-64
2023/01/27 14:37:51;;;;;;;35.20;16.00;;;;;;;6.41;87.42;100508.30;107855;1292;22018;-68
2023/01/27 14:40:50;;;;;;;27.00;15.30;;;;;;;6.38;87.49;100506.55;107824;1292;21996;-68
2023/01/27 14:43:26;;;;;;;25.40;14.30;;;;;;;6.38;87.48;100511.79;107812;1286;22109;-68
2023/01/27 14:45:53;;;;;;;37.00;16.50;;;;;;;6.39;87.15;100514.06;108010;1291;23765;-68
2023/01/27 14:48:42;;;;;;;28.60;16.60;;;;;;;6.45;87.18;100517.75;108029;1288;22016;-69
2023/01/27 14:51:11;;;;;;;32.00;16.60;;;;;;;6.48;86.79;100514.11;107795;1290;23759;-62
2023/01/27 14:54:22;;;;;;;30.80;15.80;;;;;;;6.47;85.86;100510.09;107933;1290;22008;-68
2023/01/27 14:57:03;;;;;;;29.70;15.00;;;;;;;6.47;85.34;100506.27;107628;1290;21999;-63
2023/01/27 15:00:01;;;;;;;24.70;14.10;;;;;;;6.45;85.26;100503.29;107996;1290;23641;-62
2023/01/27 15:02:45;;;;;;;27.10;14.50;;;;;;;6.44;84.71;100497.70;107791;1283;21990;-67
2023/01/27 15:05:35;;;;;;;28.90;16.50;;;;;;;6.45;84.32;100503.45;107966;1290;21998;-62
2023/01/27 15:08:13;;;;;;;46.40;24.50;;;;;;;6.44;84.36;100504.31;108041;1289;21993;-68
2023/01/27 15:11:06;;;;;;;41.30;22.10;;;;;;;6.46;84.61;100498.75;108062;1289;22011;-68
2023/01/27 15:13:55;;;;;;;38.00;20.20;;;;;;;6.48;84.24;100500.52;107866;1289;23716;-68
2023/01/27 15:16:27;;;;;;;41.80;23.70;;;;;;;6.51;84.14;100503.67;108014;1280;21992;-63
2023/01/27 15:19:17;;;;;;;44.70;23.90;;;;;;;6.53;84.10;100509.61;107960;1290;22001;-68
2023/01/27 15:22:21;;;;;;;47.90;22.10;;;;;;;6.53;83.69;100501.41;107939;1290;22009;-62
2023/01/27 15:24:50;;;;;;;51.30;27.10;;;;;;;6.54;83.57;100503.00;107893;1290;21987;-69
2023/01/27 15:27:16;;;;;;;53.50;28.20;;;;;;;6.55;83.12;100518.51;107853;1290;22051;-68
2023/01/27 15:29:42;;;;;;;62.50;29.20;;;;;;;6.45;83.41;100528.21;107798;1291;22009;-69
2023/01/27 15:32:33;;;;;;;58.60;29.70;;;;;;;6.36;83.96;100529.38;107825;1291;22005;-62
2023/01/27 15:35:21;;;;;;;53.50;25.50;;;;;;;6.34;83.67;100531.27;107764;1291;22182;-62
2023/01/27 15:38:08;;;;;;;51.80;23.50;;;;;;;6.32;83.47;100534.91;107775;1291;22150;-68
2023/01/27 15:41:00;;;;;;;43.80;22.20;;;;;;;6.30;83.82;100537.87;107758;1291;22008;-62
2023/01/27 15:43:28;;;;;;;37.60;18.50;;;;;;;6.29;83.56;100535.59;107730;1291;21992;-68
2023/01/27 15:45:54;;;;;;;33.60;17.60;;;;;;;6.26;83.07;100534.17;107848;1291;22057;-68
2023/01/27 15:48:32;;;;;;;29.10;15.20;;;;;;;6.24;83.14;100540.77;107841;1290;23048;-62
2023/01/27 15:51:00;;;;;;;30.50;16.70;;;;;;;6.23;82.83;100539.53;107835;1290;23379;-62
2023/01/27 15:53:43;;;;;;;40.70;21.60;;;;;;;6.22;82.61;100539.55;107927;1291;21997;-61
2023/01/27 15:56:09;;;;;;;35.10;19.80;;;;;;;6.29;83.99;100539.94;107827;1290;21999;-62
2023/01/27 15:58:51;;;;;;;37.80;19.40;;;;;;;6.31;83.49;100540.31;107741;1291;22003;-68
2023/01/27 16:01:28;;;;;;;41.40;19.80;;;;;;;6.29;82.55;100547.09;107750;1290;23301;-61
2023/01/27 16:04:11;;;;;;;37.50;19.50;;;;;;;6.26;82.18;100556.65;107789;1290;23923;-68
2023/01/27 16:07:02;;;;;;;36.30;18.40;;;;;;;6.22;82.05;100570.21;107698;1285;21999;-61
2023/01/27 16:09:41;;;;;;;36.20;18.90;;;;;;;6.20;82.03;100575.42;107756;1290;21998;-61
2023/01/27 16:12:22;;;;;;;35.40;18.20;;;;;;;6.20;81.92;100561.64;107832;1290;22071;-61
2023/01/27 16:14:49;;;;;;;36.10;18.30;;;;;;;6.20;81.83;100568.80;107852;1290;22506;-62
2023/01/27 16:17:20;;;;;;;37.30;20.50;;;;;;;6.22;81.99;100572.63;107728;1290;22110;-61
2023/01/27 16:20:05;;;;;;;39.70;21.80;;;;;;;6.19;82.32;100575.05;107837;1278;22011;-61
2023/01/27 16:22:32;;;;;;;44.40;22.70;;;;;;;6.30;81.17;100568.70;107810;1290;22037;-62
2023/01/27 16:25:09;;;;;;;38.50;21.50;;;;;;;6.32;80.62;100571.86;107802;1283;22507;-62
2023/01/27 16:27:50;;;;;;;39.00;19.40;;;;;;;6.31;80.35;100576.55;107879;1290;22046;-62
2023/01/27 16:30:26;;;;;;;38.40;20.20;;;;;;;6.29;80.12;100581.41;107841;1290;22010;-62
2023/01/27 16:33:17;;;;;;;35.80;19.30;;;;;;;6.22;80.69;100580.48;107810;1290;22007;-61
2023/01/27 16:35:53;;;;;;;40.30;20.00;;;;;;;6.22;81.53;100579.77;107807;1290;22006;-69
2023/01/27 16:38:38;;;;;;;43.80;22.70;;;;;;;6.24;81.70;100577.38;107902;1290;23768;-62
2023/01/27 16:41:16;;;;;;;43.90;22.90;;;;;;;6.30;82.14;100578.64;107991;1290;22106;-68
2023/01/27 16:44:03;;;;;;;47.50;24.40;;;;;;;6.32;81.48;100574.66;107956;1290;21996;-69
2023/01/27 16:46:41;;;;;;;42.30;23.60;;;;;;;6.30;81.20;100581.60;107972;1277;22007;-69
2023/01/27 16:49:38;;;;;;;42.30;21.00;;;;;;;6.34;80.24;100576.77;107832;1290;22000;-69
2023/01/27 16:52:04;;;;;;;44.20;21.70;;;;;;;6.34;80.17;100577.99;107852;1282;23346;-63
2023/01/27 16:54:34;;;;;;;48.20;24.40;;;;;;;6.28;80.56;100581.23;107946;1290;23823;-63
2023/01/27 16:57:02;;;;;;;45.90;22.40;;;;;;;6.21;81.38;100572.98;107878;1290;23057;-62
2023/01/27 16:59:29;;;;;;;45.90;23.10;;;;;;;6.20;81.83;100567.73;107787;1287;22003;-62
2023/01/27 17:01:58;;;;;;;47.30;24.40;;;;;;;6.22;81.90;100569.34;107751;1290;22004;-69
2023/01/27 23:08:26;;;;;;;54.70;22.50;;;;;;;0.58;100.00;100313.92;107406;1291;548335;-61
2023/01/27 23:10:52;;;;;;;65.30;26.20;;;;;;;3.40;100.00;100293.13;107889;1293;22000;-69
2023/01/27 23:13:17;;;;;;;73.00;29.60;;;;;;;4.03;100.00;100283.95;107548;1294;23842;-62
2023/01/27 23:15:44;;;;;;;59.20;26.50;;;;;;;4.38;100.00;100283.16;107457;1295;21999;-61
2023/01/27 23:18:10;;;;;;;68.00;29.40;;;;;;;4.63;100.00;100279.61;107653;1294;21994;-62
2023/01/27 23:20:38;;;;;;;56.50;24.50;;;;;;;4.77;100.00;100274.19;107551;1292;352500;-62
2023/01/27 23:23:05;;;;;;;60.90;27.40;;;;;;;4.88;100.00;100272.02;107863;1292;22005;-65
2023/01/27 23:25:30;;;;;;;44.00;20.90;;;;;;;4.97;99.51;100272.11;107867;1292;22022;-62
2023/01/27 23:27:56;;;;;;;37.50;19.90;;;;;;;5.02;98.44;100270.08;107958;1292;22007;-63
2023/01/27 23:30:22;;;;;;;34.80;18.70;;;;;;;5.07;97.90;100269.23;107940;1290;22006;-70
2023/01/27 23:32:49;;;;;;;37.50;16.80;;;;;;;5.13;97.82;100271.56;107923;1290;23819;-62
2023/01/27 23:35:15;;;;;;;33.50;16.80;;;;;;;5.20;96.66;100270.91;107864;1290;22763;-70
2023/01/27 23:37:41;;;;;;;36.00;17.60;;;;;;;5.24;96.08;100271.64;107990;1289;22039;-70
2023/01/27 23:40:10;;;;;;;38.80;17.10;;;;;;;5.29;95.77;100267.85;107905;1290;24332;-71
2023/01/27 23:42:37;;;;;;;35.60;17.30;;;;;;;5.33;94.82;100263.00;107849;1290;22038;-71
2023/01/27 23:45:03;;;;;;;39.70;17.80;;;;;;;5.38;94.38;100257.64;107869;1290;24364;-71
2023/01/27 23:47:29;;;;;;;37.40;17.60;;;;;;;5.41;93.65;100255.23;107874;1290;23752;-70
2023/01/27 23:49:55;;;;;;;41.80;18.60;;;;;;;5.41;93.54;100249.14;107835;1290;22042;-68
2023/01/27 23:52:21;;;;;;;43.40;17.20;;;;;;;5.41;93.21;100246.71;107822;1290;22001;-68
2023/01/27 23:54:46;;;;;;;41.30;18.30;;;;;;;5.42;93.18;100242.37;107804;1290;21992;-68
2023/01/27 23:57:12;;;;;;;39.70;18.40;;;;;;;5.43;92.57;100238.38;107826;1290;21990;-67
2023/01/27 23:59:40;;;;;;;39.70;18.70;;;;;;;5.44;92.17;100236.65;107785;1290;22033;-63
